createdAt,value
2022-12-25T00:01:08.859Z,100477.38
2022-12-25T00:11:10.769Z,100480.81
2022-12-25T00:21:12.042Z,100466.06
2022-12-25T00:31:13.391Z,100462.63
2022-12-25T00:41:14.653Z,100464.41
2022-12-25T00:51:15.948Z,100477.50
2022-12-25T01:01:17.271Z,100467.03
2022-12-25T01:11:18.634Z,100481.81
2022-12-25T01:21:23.007Z,100460.06
2022-12-25T01:31:24.253Z,100474.09
2022-12-25T01:41:25.526Z,100481.06
2022-12-25T01:51:26.782Z,100494.94
2022-12-25T02:01:28.119Z,100466.25
2022-12-25T02:11:47.843Z,100468.91
2022-12-25T02:21:49.100Z,100444.56
2022-12-25T02:31:50.372Z,100455.00
2022-12-25T02:41:51.637Z,100465.44
2022-12-25T02:52:11.750Z,100444.50
2022-12-25T03:02:31.845Z,100408.91
2022-12-25T03:12:33.154Z,100404.03
2022-12-25T03:22:53.076Z,100422.44
2022-12-25T03:32:58.758Z,100432.88
2022-12-25T03:43:19.025Z,100429.38
2022-12-25T03:53:38.835Z,100400.63
2022-12-25T04:03:59.120Z,100379.69
2022-12-25T04:14:19.016Z,100386.63
2022-12-25T04:24:38.834Z,100379.66
2022-12-25T04:34:58.884Z,100369.22
2022-12-25T04:45:00.597Z,100346.69
2022-12-25T04:55:01.810Z,100359.03
2022-12-25T05:05:03.058Z,100356.41
2022-12-25T05:15:04.318Z,100341.53
2022-12-25T05:25:05.562Z,100328.56
2022-12-25T05:35:08.735Z,100321.66
2022-12-25T05:45:09.952Z,100307.94
2022-12-25T05:55:11.224Z,100327.09
2022-12-25T06:05:12.592Z,100316.59
2022-12-25T06:15:13.935Z,100314.88
2022-12-25T06:25:15.197Z,100315.72
2022-12-25T06:35:16.411Z,100307.84
2022-12-25T06:45:17.671Z,100320.00
2022-12-25T06:55:18.936Z,100316.50
2022-12-25T07:05:20.163Z,100321.75
2022-12-25T07:15:21.435Z,100306.91
2022-12-25T07:25:22.681Z,100286.03
2022-12-25T07:35:23.929Z,100287.81
2022-12-25T07:45:25.233Z,100291.31
2022-12-25T07:55:26.495Z,100302.63
2022-12-25T08:05:27.734Z,100320.81
2022-12-25T08:15:28.978Z,100326.88
2022-12-25T08:25:31.274Z,100315.53
2022-12-25T08:35:32.507Z,100279.78
2022-12-25T08:45:35.337Z,100250.75
2022-12-25T08:55:36.953Z,100267.19
2022-12-25T09:05:38.219Z,100275.44
2022-12-25T09:15:39.548Z,100306.44
2022-12-25T09:25:40.876Z,100311.25
2022-12-25T09:35:42.115Z,100293.38
2022-12-25T09:45:43.400Z,100272.25
2022-12-25T09:55:44.620Z,100251.78
2022-12-25T10:05:45.888Z,100252.19
2022-12-25T10:15:47.163Z,100231.06
2022-12-25T10:25:48.481Z,100227.66
2022-12-25T10:35:49.725Z,100214.44
2022-12-25T10:45:51.020Z,100205.53
2022-12-25T10:55:52.273Z,100190.66
2022-12-25T11:05:54.234Z,100179.88
2022-12-25T11:15:55.516Z,100159.22
2022-12-25T11:25:56.898Z,100142.66
2022-12-25T11:35:58.181Z,100143.56
2022-12-25T11:45:59.502Z,100129.47
2022-12-25T11:56:00.764Z,100108.28
2022-12-25T12:06:02.088Z,100095.22
2022-12-25T12:16:05.864Z,100099.84
2022-12-25T12:26:07.184Z,100096.06
2022-12-25T12:36:08.435Z,100102.94
2022-12-25T12:46:10.171Z,100085.63
2022-12-25T12:56:11.430Z,100066.19
2022-12-25T13:06:12.653Z,100077.44
2022-12-25T13:16:13.923Z,100081.72
2022-12-25T13:26:15.179Z,100090.19
2022-12-25T13:36:16.579Z,100054.16
2022-12-25T13:46:17.902Z,100051.16
2022-12-25T13:56:19.216Z,100039.50
2022-12-25T14:06:20.523Z,100041.94
2022-12-25T14:16:21.818Z,100049.69
2022-12-25T14:26:23.081Z,100065.00
2022-12-25T14:36:24.368Z,100076.91
2022-12-25T14:46:26.136Z,100051.25
2022-12-25T14:56:27.860Z,100055.53
2022-12-25T15:06:29.286Z,100076.91
2022-12-25T15:16:30.674Z,100065.09
2022-12-25T15:26:32.012Z,100081.13
2022-12-25T15:36:34.048Z,100071.75
2022-12-25T15:46:35.456Z,100088.50
2022-12-25T15:56:36.778Z,100100.09
2022-12-25T16:06:38.026Z,100102.22
2022-12-25T16:16:39.351Z,100100.19
2022-12-25T16:26:40.739Z,100099.53
2022-12-25T16:36:41.970Z,100061.44
2022-12-25T16:46:43.332Z,100085.97
2022-12-25T16:56:44.586Z,100085.19
2022-12-25T17:06:45.825Z,100104.69
2022-12-25T17:16:47.133Z,100129.44
2022-12-25T17:26:48.428Z,100107.09
2022-12-25T17:36:49.761Z,100118.59
2022-12-25T17:46:51.264Z,100131.66
2022-12-25T17:56:52.623Z,100122.28
2022-12-25T18:06:53.886Z,100111.16
2022-12-25T18:16:55.163Z,100121.41
2022-12-25T18:26:56.420Z,100104.19
2022-12-25T18:37:02.830Z,100125.47
2022-12-25T18:47:04.198Z,100142.53
2022-12-25T18:57:07.349Z,100137.22
2022-12-25T19:07:08.732Z,100124.06
2022-12-25T19:17:10.611Z,100121.09
2022-12-25T19:27:11.860Z,100100.50
2022-12-25T19:37:13.239Z,100098.28
2022-12-25T19:47:14.492Z,100094.97
2022-12-25T19:57:15.731Z,100099.56
2022-12-25T20:07:17.033Z,100108.84
2022-12-25T20:17:18.318Z,100120.94
2022-12-25T20:27:19.723Z,100116.50
2022-12-25T20:37:21.075Z,100118.22
2022-12-25T20:47:22.395Z,100132.84
2022-12-25T20:57:23.707Z,100129.53
2022-12-25T21:07:24.983Z,100137.97
2022-12-25T21:17:26.235Z,100136.13
2022-12-25T21:27:27.480Z,100138.41
2022-12-25T21:37:28.712Z,100137.75
2022-12-25T21:47:59.990Z,100129.25
2022-12-25T21:57:51.195Z,100147.69
2022-12-25T22:07:52.513Z,100153.69
2022-12-25T22:18:12.378Z,100161.63
2022-12-25T22:28:13.657Z,100167.81
2022-12-25T22:38:14.932Z,100208.41
2022-12-25T22:48:16.210Z,100225.97
2022-12-25T22:58:17.528Z,100220.50
2022-12-25T23:08:18.759Z,100224.47
2022-12-25T23:18:38.490Z,100222.91
2022-12-25T23:29:02.828Z,100219.06
2022-12-25T23:39:09.431Z,100226.09
2022-12-25T23:49:11.562Z,100235.00
2022-12-25T23:59:12.824Z,100224.00
